Time;durP1;ratioP1;P1;durP2;ratioP2;P2;SDS_P1;SDS_P2;PMS_P1;PMS_P2;Temp;Humidity;BMP_temperature;BMP_pressure;BME280_temperature;BME280_humidity;BME280_pressure;Samples;Min_cycle;Max_cycle;Signal;HPM_P1;HPM_P2
2023/09/06 00:00:55;;;;;;;13.02;10.02;;;;;;;;;;5095516;28;20063;-71
2023/09/06 00:03:21;;;;;;;14.02;9.13;;;;;;;;;;5095463;28;20077;-71
2023/09/06 00:05:47;;;;;;;12.25;9.45;;;19.70;99.90;;;;;;5078705;28;20044;-71
2023/09/06 00:08:16;;;;;;;13.77;10.00;;;19.60;99.90;;;;;;5095284;28;20040;-72
2023/09/06 00:10:43;;;;;;;13.82;9.55;;;21.00;99.90;;;;;;5096707;28;20043;-70
2023/09/06 00:13:10;;;;;;;11.65;8.98;;;21.70;99.90;;;;;;5095304;28;20044;-70
2023/09/06 00:15:37;;;;;;;13.27;10.45;;;20.10;99.90;;;;;;5095108;28;20044;-70
2023/09/06 00:18:05;;;;;;;17.38;10.40;;;20.50;99.90;;;;;;5095096;28;20082;-71
2023/09/06 00:20:34;;;;;;;14.52;10.13;;;19.50;99.90;;;;;;5095215;28;20474;-71
2023/09/06 00:23:04;;;;;;;12.88;10.32;;;20.90;99.90;;;;;;5078327;28;20036;-71
2023/09/06 00:25:31;;;;;;;15.93;9.90;;;19.50;99.90;;;;;;5095315;28;20040;-72
2023/09/06 00:27:59;;;;;;;13.73;9.88;;;19.30;99.90;;;;;;5095207;28;20036;-71
2023/09/06 00:30:25;;;;;;;13.60;10.05;;;20.10;99.90;;;;;;5094892;28;20400;-71
2023/09/06 00:32:54;;;;;;;15.50;10.20;;;21.30;99.90;;;;;;5094950;28;20052;-71
2023/09/06 00:35:22;;;;;;;13.32;10.48;;;20.40;99.90;;;;;;5096091;28;20486;-71
2023/09/06 00:37:48;;;;;;;14.98;11.25;;;19.50;99.90;;;;;;5094884;28;20035;-70
2023/09/06 00:40:17;;;;;;;15.73;10.98;;;19.50;99.90;;;;;;5094547;28;20377;-71
2023/09/06 00:42:46;;;;;;;16.13;11.02;;;20.20;99.90;;;;;;5078046;28;20043;-77
2023/09/06 00:45:12;;;;;;;12.82;10.50;;;19.40;99.90;;;;;;5094756;28;20058;-77
2023/09/06 00:47:38;;;;;;;14.02;11.18;;;20.00;99.90;;;;;;5094852;28;20130;-76
2023/09/06 00:50:04;;;;;;;15.80;10.95;;;19.30;99.90;;;;;;5094375;28;20036;-76
2023/09/06 00:52:30;;;;;;;13.20;11.18;;;21.10;99.90;;;;;;5094463;28;20467;-76
2023/09/06 00:55:01;;;;;;;13.15;10.23;;;21.20;99.90;;;;;;5094477;28;20094;-77
2023/09/06 00:57:29;;;;;;;13.43;10.50;;;20.40;99.90;;;;;;5094350;28;20464;-76
2023/09/06 00:59:58;;;;;;;14.32;10.40;;;19.60;99.90;;;;;;5077481;28;20050;-76
2023/09/06 01:02:24;;;;;;;13.55;10.48;;;19.70;99.90;;;;;;5094516;28;20051;-76
2023/09/06 01:04:50;;;;;;;14.45;10.88;;;20.80;99.90;;;;;;5077375;28;20111;-71
2023/09/06 01:07:17;;;;;;;14.40;11.23;;;18.90;99.90;;;;;;5077482;28;20123;-70
2023/09/06 01:09:43;;;;;;;15.02;11.35;;;19.10;99.90;;;;;;5077675;28;20072;-70
2023/09/06 01:12:12;;;;;;;13.75;11.18;;;18.80;99.90;;;;;;5077210;28;20039;-71
2023/09/06 01:14:40;;;;;;;14.70;11.00;;;;;;;;;;5076975;28;20063;-70
2023/09/06 01:17:09;;;;;;;14.48;10.90;;;19.90;99.90;;;;;;5094375;28;20044;-70
2023/09/06 01:19:40;;;;;;;16.70;11.18;;;20.50;99.90;;;;;;5094267;28;20043;-70
2023/09/06 01:22:24;;;;;;;15.13;11.55;;;19.30;99.90;;;;;;5076969;28;20040;-70
2023/09/06 01:24:50;;;;;;;17.30;11.80;;;20.60;99.90;;;;;;5094051;28;20115;-70
2023/09/06 01:27:17;;;;;;;16.30;11.60;;;20.80;99.90;;;;;;5093891;28;20044;-70
2023/09/06 01:29:42;;;;;;;14.55;10.32;;;18.70;99.90;;;;;;5093988;28;20435;-70
2023/09/06 01:32:09;;;;;;;18.10;11.63;;;;;;;;;;5093539;28;20060;-71
2023/09/06 01:34:34;;;;;;;14.65;12.25;;;18.60;99.90;;;;;;5093610;28;20105;-70
2023/09/06 01:37:00;;;;;;;17.13;12.50;;;;;;;;;;5093543;28;20043;-70
2023/09/06 01:39:26;;;;;;;15.00;12.23;;;;;;;;;;5076755;28;20127;-70
2023/09/06 01:41:52;;;;;;;15.82;12.07;;;20.70;99.90;;;;;;5093421;28;20075;-70
2023/09/06 01:44:18;;;;;;;15.85;12.15;;;;;;;;;;5093361;28;20083;-70
2023/09/06 01:46:45;;;;;;;15.50;12.38;;;20.70;99.90;;;;;;5093787;28;20373;-71
2023/09/06 01:49:11;;;;;;;16.90;11.93;;;20.70;99.90;;;;;;5093431;28;20617;-71
2023/09/06 01:51:37;;;;;;;17.35;12.43;;;20.70;99.90;;;;;;5076585;28;20058;-70
2023/09/06 01:54:10;;;;;;;14.48;12.00;;;19.70;99.90;;;;;;5093561;28;20040;-70
2023/09/06 01:56:35;;;;;;;17.02;11.77;;;20.60;99.90;;;;;;5076935;28;20048;-70
2023/09/06 01:59:01;;;;;;;18.05;13.48;;;20.00;99.90;;;;;;5093310;28;20036;-70
2023/09/06 02:01:27;;;;;;;16.08;12.20;;;;;;;;;;5093036;28;20080;-70
2023/09/06 02:03:53;;;;;;;13.82;12.18;;;20.30;99.90;;;;;;5092842;28;20070;-70
2023/09/06 02:06:18;;;;;;;15.98;12.23;;;20.60;99.90;;;;;;5093294;28;20076;-71
2023/09/06 02:08:44;;;;;;;16.15;12.57;;;20.20;99.90;;;;;;5092913;28;20442;-77
2023/09/06 02:11:10;;;;;;;14.70;11.23;;;;;;;;;;5093026;28;20040;-77
2023/09/06 02:13:36;;;;;;;14.52;12.18;;;18.30;99.90;;;;;;5076050;28;20118;-77
2023/09/06 02:16:02;;;;;;;14.23;11.45;;;;;;;;;;5076059;28;20165;-77
2023/09/06 02:18:28;;;;;;;17.15;12.80;;;19.90;99.90;;;;;;5093234;28;20100;-77
2023/09/06 02:20:58;;;;;;;17.95;12.45;;;18.20;99.90;;;;;;5092796;28;20445;-78
2023/09/06 02:23:24;;;;;;;14.52;12.43;;;18.20;99.90;;;;;;5076287;28;20052;-77
2023/09/06 02:25:50;;;;;;;21.23;13.30;;;18.10;99.90;;;;;;5059483;28;20043;-77
2023/09/06 02:28:17;;;;;;;17.67;12.90;;;19.40;99.90;;;;;;5059337;28;20185;-77
2023/09/06 02:30:43;;;;;;;15.75;13.55;;;19.90;99.90;;;;;;5075685;28;20059;-77
2023/09/06 02:33:13;;;;;;;16.90;12.75;;;19.80;99.90;;;;;;5092943;28;20048;-77
2023/09/06 02:35:43;;;;;;;17.65;13.43;;;19.40;99.90;;;;;;5076396;28;20079;-77
2023/09/06 02:38:10;;;;;;;21.50;12.90;;;18.20;99.90;;;;;;5076336;28;20109;-77
2023/09/06 02:40:37;;;;;;;15.23;12.88;;;19.40;99.90;;;;;;5075683;28;20113;-77
2023/09/06 02:43:04;;;;;;;17.92;13.70;;;18.10;99.90;;;;;;5092663;28;20094;-77
2023/09/06 02:45:36;;;;;;;15.95;13.65;;;18.00;99.90;;;;;;5092690;28;20036;-77
2023/09/06 02:48:11;;;;;;;17.10;12.95;;;20.10;99.90;;;;;;5076531;28;20093;-77
2023/09/06 02:50:39;;;;;;;16.63;13.20;;;19.60;99.90;;;;;;5075731;28;20036;-77
2023/09/06 02:53:15;;;;;;;17.20;13.98;;;17.90;99.90;;;;;;5092541;28;20153;-77
2023/09/06 02:55:41;;;;;;;17.45;13.98;;;;;;;;;;5092250;28;20055;-77
2023/09/06 02:58:10;;;;;;;15.63;13.05;;;19.20;99.90;;;;;;5078537;28;20044;-77
2023/09/06 03:00:40;;;;;;;16.88;13.55;;;19.00;99.90;;;;;;5108320;28;20036;-77
2023/09/06 03:03:05;;;;;;;15.68;13.10;;;19.50;99.90;;;;;;5097037;28;20047;-77
2023/09/06 03:05:32;;;;;;;15.35;11.85;;;19.70;99.90;;;;;;5112145;28;20119;-76
2023/09/06 03:07:58;;;;;;;15.70;12.63;;;19.20;99.90;;;;;;5110303;28;20097;-77
2023/09/06 03:10:24;;;;;;;19.13;13.85;;;;;;;;;;5099567;28;20044;-77
2023/09/06 03:12:55;;;;;;;15.98;13.00;;;18.70;99.90;;;;;;5099999;28;20039;-76
2023/09/06 03:15:28;;;;;;;18.92;13.20;;;19.30;99.90;;;;;;5095240;28;20044;-76
2023/09/06 03:18:01;;;;;;;22.05;13.15;;;19.50;99.90;;;;;;5094568;28;20040;-77
2023/09/06 03:20:43;;;;;;;18.33;12.70;;;18.60;99.90;;;;;;5098742;28;20491;-75
2023/09/06 03:23:17;;;;;;;20.90;12.60;;;18.60;99.90;;;;;;5082822;28;20499;-76
2023/09/06 03:25:53;;;;;;;14.80;11.73;;;18.30;99.90;;;;;;5091983;28;20109;-76
2023/09/06 03:28:20;;;;;;;14.35;11.98;;;19.60;99.90;;;;;;5092092;28;20047;-76
2023/09/06 03:30:46;;;;;;;14.52;12.40;;;18.50;99.90;;;;;;5075569;28;20044;-76
2023/09/06 03:33:12;;;;;;;14.20;11.88;;;19.60;99.90;;;;;;5075957;28;20044;-76
2023/09/06 03:35:37;;;;;;;15.55;11.75;;;19.50;99.90;;;;;;5076179;28;20039;-76
2023/09/06 03:38:08;;;;;;;14.25;11.15;;;17.80;99.90;;;;;;5075342;28;20032;-76
2023/09/06 03:40:37;;;;;;;16.38;12.45;;;;;;;;;;5091645;28;20119;-76
2023/09/06 03:43:19;;;;;;;13.68;11.35;;;18.00;99.90;;;;;;5091729;28;20086;-76
2023/09/06 03:45:51;;;;;;;16.30;11.95;;;19.20;99.90;;;;;;5091832;28;20044;-77
2023/09/06 03:48:19;;;;;;;16.35;11.60;;;18.10;99.90;;;;;;5092950;28;20036;-77
2023/09/06 03:50:46;;;;;;;14.45;11.90;;;19.00;99.90;;;;;;5091891;28;20079;-76
2023/09/06 03:53:13;;;;;;;16.60;12.77;;;18.60;99.90;;;;;;5091646;28;20051;-77
2023/09/06 03:55:41;;;;;;;14.93;12.32;;;18.10;99.90;;;;;;5091600;28;20097;-76
2023/09/06 03:58:07;;;;;;;17.70;12.05;;;18.00;99.90;;;;;;5091605;28;20423;-77
2023/09/06 04:00:34;;;;;;;17.27;11.38;;;18.20;99.90;;;;;;5074709;28;20089;-76
2023/09/06 04:03:03;;;;;;;16.30;12.27;;;17.10;99.90;;;;;;5091839;28;20044;-76
2023/09/06 04:05:29;;;;;;;14.95;11.68;;;;;;;;;;5091332;28;20051;-76
2023/09/06 04:07:57;;;;;;;13.45;11.57;;;19.20;99.90;;;;;;5075034;28;20376;-76
2023/09/06 04:10:25;;;;;;;14.73;11.05;;;17.20;99.90;;;;;;5091922;28;20384;-76
2023/09/06 04:12:53;;;;;;;13.00;11.18;;;19.30;99.90;;;;;;5091431;28;20054;-76
2023/09/06 04:15:22;;;;;;;17.55;11.30;;;18.20;99.90;;;;;;5092671;28;20047;-76
2023/09/06 04:18:01;;;;;;;14.32;11.75;;;18.20;99.90;;;;;;5091552;28;20040;-75
2023/09/06 04:20:32;;;;;;;15.00;11.38;;;18.40;99.90;;;;;;5074543;28;20043;-76
2023/09/06 04:22:59;;;;;;;14.50;11.50;;;18.30;99.90;;;;;;5091279;28;20119;-76
2023/09/06 04:25:26;;;;;;;17.63;12.23;;;18.00;99.90;;;;;;5092430;28;20055;-76
2023/09/06 04:27:55;;;;;;;15.48;12.05;;;17.40;99.90;;;;;;5078307;28;20040;-70
2023/09/06 04:30:28;;;;;;;17.58;11.15;;;17.50;99.90;;;;;;5081152;28;20051;-70
2023/09/06 04:32:54;;;;;;;16.35;11.02;;;18.00;99.90;;;;;;5098419;28;20073;-71
2023/09/06 04:35:22;;;;;;;16.48;11.25;;;19.10;99.90;;;;;;5098530;28;20424;-70
2023/09/06 04:37:48;;;;;;;15.40;10.80;;;18.00;99.90;;;;;;5098131;28;20512;-70
2023/09/06 04:40:14;;;;;;;13.45;11.02;;;18.60;99.90;;;;;;5081575;28;20047;-70
2023/09/06 04:42:41;;;;;;;17.27;10.80;;;18.00;99.90;;;;;;5098870;28;20071;-70
2023/09/06 04:45:11;;;;;;;17.80;11.57;;;17.10;99.90;;;;;;5081427;28;20449;-70
2023/09/06 04:47:39;;;;;;;16.52;10.82;;;18.10;99.90;;;;;;5097971;28;20036;-70
2023/09/06 04:50:06;;;;;;;13.77;10.40;;;18.20;99.90;;;;;;5081176;28;20035;-71
2023/09/06 04:52:47;;;;;;;12.60;10.52;;;18.80;99.90;;;;;;5098154;28;20051;-70
2023/09/06 04:55:14;;;;;;;15.40;10.60;;;16.60;99.90;;;;;;5098173;28;20043;-71
2023/09/06 04:57:41;;;;;;;14.55;10.18;;;18.90;99.90;;;;;;5098055;28;20084;-71
2023/09/06 05:00:17;;;;;;;15.90;10.18;;;18.90;99.90;;;;;;5097699;28;20502;-70
2023/09/06 05:02:46;;;;;;;11.43;9.35;;;18.00;99.90;;;;;;5097842;28;20092;-70
2023/09/06 05:05:14;;;;;;;13.00;10.02;;;17.70;99.90;;;;;;5097921;28;20043;-71
2023/09/06 05:07:46;;;;;;;14.32;9.57;;;17.10;99.90;;;;;;5097763;28;20058;-71
2023/09/06 05:10:12;;;;;;;;;;;18.00;99.90;;;;;;5098273;28;20069;-71
2023/09/06 05:12:38;;;;;;;14.93;9.52;;;;;;;;;;5097639;28;20284;-72
2023/09/06 05:15:06;;;;;;;17.92;10.50;;;18.40;99.90;;;;;;5097540;28;20047;-70
2023/09/06 05:17:34;;;;;;;15.68;9.65;;;18.80;99.90;;;;;;5097900;28;20044;-69
2023/09/06 05:20:22;;;;;;;14.63;9.50;;;18.60;99.90;;;;;;5097191;28;20043;-70
2023/09/06 05:22:48;;;;;;;15.15;9.55;;;;;;;;;;5097567;28;20035;-69
2023/09/06 05:25:14;;;;;;;12.30;9.52;;;18.50;99.90;;;;;;5097233;28;20047;-70
2023/09/06 05:27:40;;;;;;;17.42;10.32;;;;;;;;;;5080402;28;20044;-70
2023/09/06 05:30:06;;;;;;;17.67;9.80;;;18.50;99.90;;;;;;5097335;28;20059;-70
2023/09/06 05:32:32;;;;;;;13.30;9.77;;;18.70;99.90;;;;;;5080417;28;20123;-69
2023/09/06 05:34:58;;;;;;;14.02;9.80;;;;;;;;;;5096966;28;20118;-70
2023/09/06 05:37:25;;;;;;;14.98;9.10;;;16.70;99.90;;;;;;5096142;28;20066;-70
2023/09/06 05:39:51;;;;;;;15.00;8.98;;;17.80;99.90;;;;;;5097059;28;20118;-70
2023/09/06 05:42:17;;;;;;;14.95;8.52;;;18.60;99.90;;;;;;5096877;28;20127;-69
2023/09/06 05:44:43;;;;;;;13.63;8.95;;;18.80;99.90;;;;;;5080103;28;20067;-70
2023/09/06 05:47:09;;;;;;;17.58;9.23;;;18.40;99.90;;;;;;5080087;28;20482;-70
2023/09/06 05:49:37;;;;;;;13.00;8.68;;;18.70;99.90;;;;;;5079873;28;20084;-70
2023/09/06 05:52:03;;;;;;;16.52;9.10;;;;;;;;;;5096654;28;20043;-71
2023/09/06 05:54:29;;;;;;;12.70;8.50;;;;;;;;;;5096757;28;20093;-71
2023/09/06 05:56:55;;;;;;;15.43;8.90;;;18.40;99.90;;;;;;5096972;28;20043;-71
2023/09/06 05:59:21;;;;;;;15.27;9.45;;;18.50;99.90;;;;;;5096631;28;20049;-71
2023/09/06 06:01:47;;;;;;;13.65;8.95;;;;;;;;;;5096518;28;20047;-71
2023/09/06 06:04:13;;;;;;;16.27;10.02;;;18.90;99.90;;;;;;5096735;28;20036;-71
2023/09/06 06:06:41;;;;;;;14.82;8.82;;;17.50;99.90;;;;;;5096600;28;20039;-70
2023/09/06 06:09:11;;;;;;;11.60;8.02;;;17.20;99.90;;;;;;5079659;28;20468;-70
2023/09/06 06:11:38;;;;;;;11.82;9.55;;;17.90;99.90;;;;;;5096711;28;20047;-71
2023/09/06 06:14:04;;;;;;;15.40;9.00;;;;;;;;;;5079466;28;20126;-71
2023/09/06 06:16:30;;;;;;;14.48;9.02;;;17.70;99.90;;;;;;5079763;28;20057;-71
2023/09/06 06:18:56;;;;;;;14.32;9.13;;;;;;;;;;5096650;28;20348;-71
2023/09/06 06:21:23;;;;;;;14.77;8.70;;;18.10;99.90;;;;;;5096452;28;20036;-71
2023/09/06 06:23:48;;;;;;;13.05;8.73;;;17.00;99.90;;;;;;5114925;28;20040;-71
2023/09/06 06:26:19;;;;;;;13.68;8.70;;;;;;;;;;5097038;28;20042;-71
2023/09/06 06:28:45;;;;;;;15.18;8.88;;;19.20;99.90;;;;;;5096384;28;20043;-70
2023/09/06 06:31:12;;;;;;;11.55;8.95;;;17.10;99.90;;;;;;5096651;28;20058;-71
2023/09/06 06:33:38;;;;;;;16.20;9.13;;;18.80;99.90;;;;;;5097566;28;20048;-71
2023/09/06 06:36:06;;;;;;;12.13;8.88;;;17.20;99.90;;;;;;5103658;28;20092;-71
2023/09/06 06:38:33;;;;;;;16.95;8.52;;;18.50;99.90;;;;;;5118343;28;20031;-70
2023/09/06 06:40:59;;;;;;;9.93;8.15;;;19.40;99.90;;;;;;5117804;28;20043;-71
2023/09/06 06:43:25;;;;;;;10.38;7.63;;;18.80;99.90;;;;;;5117172;28;20047;-71
2023/09/06 06:45:53;;;;;;;12.23;8.85;;;17.90;99.90;;;;;;5134624;28;20467;-71
2023/09/06 06:48:19;;;;;;;11.30;8.00;;;19.20;99.90;;;;;;5116700;28;20103;-71
2023/09/06 06:50:45;;;;;;;15.32;8.75;;;;;;;;;;5108276;28;20075;-71
2023/09/06 06:53:11;;;;;;;16.73;8.52;;;19.60;99.90;;;;;;5096890;28;20027;-70
2023/09/06 06:55:37;;;;;;;17.35;8.68;;;18.30;99.90;;;;;;5095821;28;20239;-71
2023/09/06 06:58:05;;;;;;;10.90;8.30;;;18.80;99.90;;;;;;5095531;28;20050;-71
2023/09/06 07:00:31;;;;;;;13.25;8.45;;;;;;;;;;5079221;28;20043;-71
2023/09/06 07:02:57;;;;;;;13.95;8.18;;;18.90;99.90;;;;;;5095906;28;20050;-71
2023/09/06 07:05:24;;;;;;;16.38;8.15;;;18.40;99.90;;;;;;5095592;28;20130;-71
2023/09/06 07:07:50;;;;;;;11.68;8.30;;;18.60;99.90;;;;;;5095611;28;20039;-71
2023/09/06 07:10:16;;;;;;;13.23;8.48;;;;;;;;;;5095377;28;20036;-71
2023/09/06 07:12:42;;;;;;;12.45;8.60;;;;;;;;;;5078908;28;20032;-70
2023/09/06 07:15:09;;;;;;;13.32;8.23;;;20.00;99.90;;;;;;5078898;28;20085;-71
2023/09/06 07:17:35;;;;;;;14.98;8.40;;;19.80;99.90;;;;;;5096028;28;20071;-71
2023/09/06 07:20:02;;;;;;;12.52;7.60;;;19.80;99.90;;;;;;5079227;28;20399;-71
2023/09/06 07:22:27;;;;;;;10.65;7.80;;;19.00;99.90;;;;;;5095647;28;20043;-71
2023/09/06 07:24:53;;;;;;;10.07;7.53;;;20.10;99.90;;;;;;5095470;28;20498;-71
2023/09/06 07:27:21;;;;;;;17.58;7.43;;;;;;;;;;5095475;28;20046;-70
2023/09/06 07:29:46;;;;;;;13.55;7.57;;;20.10;99.90;;;;;;5078642;28;20043;-71
2023/09/06 07:32:13;;;;;;;16.83;8.30;;;;;;;;;;5075354;28;20144;-71
2023/09/06 07:34:38;;;;;;;16.25;8.98;;;19.40;99.90;;;;;;5095333;28;20052;-71
2023/09/06 07:37:04;;;;;;;13.05;7.35;;;20.40;99.90;;;;;;5095371;28;20050;-71
2023/09/06 07:39:30;;;;;;;11.55;7.80;;;18.50;99.90;;;;;;5095268;28;20514;-71
2023/09/06 07:41:56;;;;;;;14.00;7.97;;;;;;;;;;5095119;28;20085;-71
2023/09/06 07:44:22;;;;;;;14.25;8.43;;;20.30;99.90;;;;;;5095319;28;20046;-71
2023/09/06 07:46:48;;;;;;;10.60;7.20;;;18.80;99.90;;;;;;5095380;28;20035;-71
2023/09/06 07:49:18;;;;;;;14.85;7.85;;;19.70;99.90;;;;;;5078635;28;20050;-77
2023/09/06 07:51:44;;;;;;;33.92;8.73;;;20.70;99.90;;;;;;5095384;28;20122;-77
2023/09/06 07:54:11;;;;;;;11.80;7.63;;;;;;;;;;5095279;28;20122;-77
2023/09/06 07:56:39;;;;;;;26.02;8.05;;;18.90;99.90;;;;;;5095475;28;20778;-77
2023/09/06 07:59:08;;;;;;;15.75;7.65;;;20.80;99.90;;;;;;5095579;28;20073;-77
2023/09/06 08:01:34;;;;;;;15.35;7.25;;;20.40;99.90;;;;;;5098720;28;20071;-77
2023/09/06 08:03:59;;;;;;;16.30;7.30;;;19.20;99.90;;;;;;5099831;28;20078;-77
2023/09/06 08:06:25;;;;;;;14.25;7.57;;;20.60;99.90;;;;;;5100713;28;20361;-77
2023/09/06 08:08:51;;;;;;;10.02;7.32;;;21.00;99.90;;;;;;5099246;28;20480;-77
2023/09/06 08:11:18;;;;;;;12.07;7.55;;;19.30;99.90;;;;;;5099169;28;20055;-77
2023/09/06 08:13:44;;;;;;;12.20;7.60;;;;;;;;;;5099652;28;20126;-76
2023/09/06 08:16:10;;;;;;;12.32;7.18;;;20.60;99.90;;;;;;5099222;28;20066;-77
2023/09/06 08:18:36;;;;;;;13.68;6.93;;;20.90;99.90;;;;;;5117377;28;20086;-76
2023/09/06 08:21:02;;;;;;;11.38;6.78;;;;;;;;;;5098951;28;20498;-76
2023/09/06 08:23:28;;;;;;;12.95;7.45;;;19.60;99.90;;;;;;5098751;28;20081;-76
2023/09/06 08:25:56;;;;;;;14.52;7.57;;;19.90;99.90;;;;;;5082149;28;20040;-77
2023/09/06 08:28:21;;;;;;;11.95;7.45;;;21.30;99.90;;;;;;5082232;28;20448;-77
2023/09/06 08:30:47;;;;;;;11.07;6.82;;;21.70;99.90;;;;;;5082371;28;20126;-76
2023/09/06 08:33:14;;;;;;;13.13;7.47;;;20.60;99.90;;;;;;5081722;28;20094;-76
2023/09/06 08:35:39;;;;;;;10.75;7.40;;;21.40;99.90;;;;;;5098930;28;20043;-76
2023/09/06 08:38:05;;;;;;;11.40;7.15;;;21.70;99.90;;;;;;5098926;28;20468;-76
2023/09/06 08:40:31;;;;;;;13.60;7.47;;;21.70;99.90;;;;;;5098502;28;20507;-76
2023/09/06 08:43:02;;;;;;;9.95;6.40;;;21.80;99.90;;;;;;5081675;28;20038;-76
2023/09/06 08:45:29;;;;;;;11.45;7.50;;;20.60;99.90;;;;;;5098282;28;20568;-77
2023/09/06 08:47:55;;;;;;;11.70;7.80;;;21.90;99.90;;;;;;5098430;28;20491;-77
2023/09/06 08:50:21;;;;;;;11.20;6.97;;;22.20;99.90;;;;;;5065219;28;20040;-76
2023/09/06 08:52:50;;;;;;;11.48;7.65;;;22.20;99.90;;;;;;5098229;28;20031;-76
2023/09/06 08:55:16;;;;;;;13.40;7.80;;;21.60;99.90;;;;;;5081797;28;20047;-76
2023/09/06 08:57:44;;;;;;;9.60;6.88;;;22.30;99.90;;;;;;5099669;28;20039;-76
2023/09/06 09:00:11;;;;;;;12.00;7.20;;;22.40;99.90;;;;;;5099209;28;20451;-76
2023/09/06 09:02:42;;;;;;;13.25;7.00;;;21.90;99.90;;;;;;5099514;28;20040;-75
2023/09/06 09:05:10;;;;;;;10.18;6.60;;;21.70;99.90;;;;;;5082284;28;20039;-76
2023/09/06 09:07:36;;;;;;;11.98;7.28;;;22.40;99.90;;;;;;5098769;28;20043;-77
2023/09/06 09:10:08;;;;;;;13.40;6.65;;;21.40;99.90;;;;;;5098168;28;20039;-76
2023/09/06 09:12:35;;;;;;;12.70;7.47;;;22.00;99.90;;;;;;5097084;28;20376;-70
2023/09/06 09:15:03;;;;;;;9.20;6.53;;;22.80;99.90;;;;;;5097944;28;20061;-71
2023/09/06 09:17:30;;;;;;;11.77;6.65;;;22.50;99.90;;;;;;5097832;28;20167;-70
2023/09/06 09:20:00;;;;;;;12.43;7.28;;;21.90;99.90;;;;;;5081336;28;20112;-70
2023/09/06 09:22:28;;;;;;;15.88;7.22;;;23.30;99.90;;;;;;5097715;28;20046;-71
2023/09/06 09:24:58;;;;;;;12.45;6.47;;;22.90;99.90;;;;;;5098442;28;20051;-70
2023/09/06 09:27:27;;;;;;;9.45;6.45;;;21.80;99.90;;;;;;5097594;28;20452;-70
2023/09/06 09:29:58;;;;;;;11.07;6.50;;;22.70;99.90;;;;;;5097564;28;20460;-70
2023/09/06 09:32:24;;;;;;;12.10;6.75;;;23.40;99.90;;;;;;5097430;28;20056;-70
2023/09/06 09:34:52;;;;;;;7.60;5.70;;;22.10;99.90;;;;;;5097866;28;20055;-71
2023/09/06 09:37:22;;;;;;;7.80;5.60;;;23.00;99.90;;;;;;5097587;28;20058;-70
2023/09/06 09:39:48;;;;;;;10.30;6.20;;;23.40;99.90;;;;;;5097946;28;20044;-71
2023/09/06 09:42:14;;;;;;;7.72;5.10;;;23.70;99.90;;;;;;5097162;28;20403;-71
2023/09/06 09:44:41;;;;;;;10.98;6.03;;;23.00;99.60;;;;;;5097314;28;20050;-71
2023/09/06 09:47:12;;;;;;;12.35;6.45;;;22.80;99.90;;;;;;5097298;28;20067;-71
2023/09/06 09:49:40;;;;;;;10.77;5.27;;;22.60;99.90;;;;;;5097271;28;20057;-71
2023/09/06 09:52:12;;;;;;;10.48;6.03;;;23.60;99.90;;;;;;5080805;28;20079;-70
2023/09/06 09:54:45;;;;;;;8.00;5.22;;;22.90;99.90;;;;;;5097468;28;20074;-70
2023/09/06 09:57:12;;;;;;;9.00;5.53;;;;;;;;;;5097254;28;20043;-70
2023/09/06 09:59:39;;;;;;;8.75;5.28;;;24.30;99.90;;;;;;5081387;28;20093;-70
2023/09/06 10:02:06;;;;;;;8.27;4.80;;;24.30;99.90;;;;;;5080311;28;20127;-70
2023/09/06 10:04:42;;;;;;;11.38;5.10;;;24.00;99.90;;;;;;5097485;28;20039;-76
2023/09/06 10:07:09;;;;;;;10.45;4.82;;;24.30;98.50;;;;;;5100269;28;20065;-76
2023/09/06 10:09:38;;;;;;;11.00;4.85;;;24.30;99.90;;;;;;5108234;28;20044;-76
2023/09/06 10:12:10;;;;;;;14.35;4.90;;;24.60;99.30;;;;;;5086817;28;20051;-76
2023/09/06 10:14:39;;;;;;;12.27;5.22;;;24.20;99.90;;;;;;5080863;28;20042;-76
2023/09/06 10:17:07;;;;;;;8.68;4.95;;;24.40;98.40;;;;;;5097679;28;20039;-76
2023/09/06 10:19:33;;;;;;;7.47;4.70;;;24.90;99.90;;;;;;5097816;28;20122;-76
2023/09/06 10:22:02;;;;;;;11.55;4.57;;;25.00;99.90;;;;;;5103258;28;20039;-76
2023/09/06 10:24:32;;;;;;;7.75;4.70;;;24.70;99.90;;;;;;5114820;28;20062;-76
2023/09/06 10:26:58;;;;;;;7.43;5.10;;;;;;;;;;5111250;28;20036;-77
2023/09/06 10:29:28;;;;;;;9.73;4.43;;;24.40;99.90;;;;;;5111660;28;20043;-77
2023/09/06 10:32:01;;;;;;;9.35;4.57;;;24.90;97.20;;;;;;5112203;28;20044;-75
2023/09/06 10:34:31;;;;;;;6.63;4.13;;;24.90;99.90;;;;;;5110605;28;20096;-70
2023/09/06 10:37:00;;;;;;;7.03;4.05;;;25.60;99.90;;;;;;5090612;28;20082;-71
2023/09/06 10:39:28;;;;;;;12.00;4.10;;;25.10;96.60;;;;;;5096112;28;20108;-70
2023/09/06 10:42:09;;;;;;;6.93;4.00;;;24.80;95.10;;;;;;5078972;28;20123;-71
2023/09/06 10:44:53;;;;;;;6.35;3.85;;;24.60;99.40;;;;;;5096162;28;20101;-71
2023/09/06 10:47:30;;;;;;;7.63;4.32;;;24.70;99.20;;;;;;5095605;28;20092;-71
2023/09/06 10:50:19;;;;;;;12.35;3.53;;;24.80;95.90;;;;;;5095605;28;20046;-71
2023/09/06 10:52:50;;;;;;;6.05;3.78;;;25.60;95.60;;;;;;5095988;28;20031;-71
2023/09/06 10:55:19;;;;;;;12.45;4.00;;;25.40;99.10;;;;;;5097101;28;20038;-71
2023/09/06 10:57:54;;;;;;;7.07;4.18;;;26.10;95.20;;;;;;5078764;28;20039;-71
2023/09/06 11:00:27;;;;;;;7.40;4.18;;;25.90;99.00;;;;;;5095744;28;20051;-71
2023/09/06 11:03:09;;;;;;;8.35;4.10;;;25.80;98.90;;;;;;5095472;28;20044;-71
2023/09/06 11:05:39;;;;;;;8.60;4.10;;;25.90;99.10;;;;;;5078856;28;20047;-71
2023/09/06 11:08:08;;;;;;;7.43;4.20;;;26.30;98.90;;;;;;5095959;28;20052;-71
2023/09/06 11:10:35;;;;;;;6.18;4.00;;;25.40;98.60;;;;;;5095860;28;20083;-71
2023/09/06 11:13:12;;;;;;;6.80;3.60;;;26.20;94.10;;;;;;5078834;28;20510;-71
2023/09/06 11:15:39;;;;;;;5.90;3.47;;;26.70;95.50;;;;;;5095695;28;20044;-71
2023/09/06 11:18:05;;;;;;;5.55;3.72;;;26.60;98.50;;;;;;5095498;28;20050;-71
2023/09/06 11:20:32;;;;;;;5.97;3.72;;;26.80;98.50;;;;;;5095336;28;20042;-71
2023/09/06 11:23:00;;;;;;;6.57;3.40;;;26.40;98.10;;;;;;5078920;28;20039;-71
2023/09/06 11:25:28;;;;;;;6.50;3.92;;;26.60;98.30;;;;;;5095747;28;20088;-71
2023/09/06 11:27:59;;;;;;;7.13;3.72;;;26.10;96.60;;;;;;5095507;28;20036;-72
2023/09/06 11:30:26;;;;;;;7.32;3.60;;;26.50;97.80;;;;;;5095517;28;20113;-71
2023/09/06 11:32:56;;;;;;;8.23;3.85;;;26.50;93.80;;;;;;5095172;28;20590;-71
2023/09/06 11:35:27;;;;;;;7.03;3.47;;;27.00;97.50;;;;;;5096595;28;20084;-71
2023/09/06 11:37:56;;;;;;;4.45;3.50;;;26.60;97.30;;;;;;5082972;28;20045;-71
2023/09/06 11:40:25;;;;;;;6.55;3.45;;;27.00;97.10;;;;;;5099302;28;20043;-71
2023/09/06 11:43:02;;;;;;;4.50;3.28;;;27.00;97.00;;;;;;5083163;28;20043;-71
2023/09/06 11:45:31;;;;;;;4.22;2.97;;;26.80;96.80;;;;;;5099206;28;20042;-71
2023/09/06 11:47:59;;;;;;;5.30;3.20;;;27.30;97.00;;;;;;5082848;28;20377;-71
2023/09/06 11:50:29;;;;;;;5.38;3.30;;;27.40;96.80;;;;;;5099467;28;20543;-71
2023/09/06 11:52:58;;;;;;;8.43;3.47;;;27.30;96.50;;;;;;5083119;28;20050;-71
2023/09/06 11:55:26;;;;;;;7.30;3.28;;;27.70;96.20;;;;;;5099143;28;20046;-71
2023/09/06 11:57:52;;;;;;;5.22;2.80;;;27.10;95.80;;;;;;5099434;28;20050;-71
2023/09/06 12:00:36;;;;;;;3.72;3.00;;;27.10;95.60;;;;;;5098948;28;20067;-71
2023/09/06 12:03:07;;;;;;;4.55;2.50;;;27.90;95.60;;;;;;5098924;28;20104;-71
2023/09/06 12:05:44;;;;;;;7.47;3.13;;;27.60;91.70;;;;;;5082016;28;20031;-71
2023/09/06 12:08:15;;;;;;;4.88;2.97;;;27.30;91.10;;;;;;5081880;28;20368;-71
2023/09/06 12:10:49;;;;;;;5.80;3.43;;;27.90;94.70;;;;;;5098919;28;20407;-71
2023/09/06 12:13:16;;;;;;;6.95;2.70;;;28.20;94.40;;;;;;5099219;28;20195;-71
2023/09/06 12:15:43;;;;;;;6.70;2.80;;;;;;;;;;5098655;28;20051;-71
2023/09/06 12:18:09;;;;;;;5.00;3.10;;;28.20;94.40;;;;;;5098948;28;20096;-71
2023/09/06 12:20:34;;;;;;;8.57;2.78;;;28.10;91.50;;;;;;5081705;28;20129;-71
2023/09/06 12:23:00;;;;;;;6.35;2.95;;;28.30;94.00;;;;;;5098723;28;20044;-71
2023/09/06 12:25:26;;;;;;;4.82;2.95;;;28.40;94.00;;;;;;5081634;28;20111;-72
2023/09/06 12:27:52;;;;;;;5.03;2.80;;;28.50;93.90;;;;;;5081717;28;20042;-71
2023/09/06 12:30:21;;;;;;;5.88;3.00;;;28.10;88.80;;;;;;5081634;28;20071;-71
2023/09/06 12:32:47;;;;;;;3.28;2.70;;;28.10;93.20;;;;;;5098663;28;20052;-78
2023/09/06 12:35:13;;;;;;;4.57;2.75;;;28.70;93.10;;;;;;5098821;28;20035;-78
2023/09/06 12:37:39;;;;;;;4.68;2.97;;;28.10;92.80;;;;;;5099105;28;20031;-78
2023/09/06 12:40:12;;;;;;;3.92;2.40;;;28.20;92.40;;;;;;5098533;28;20050;-77
2023/09/06 12:42:41;;;;;;;3.83;2.47;;;28.60;92.20;;;;;;5098490;28;20114;-78
2023/09/06 12:45:09;;;;;;;5.22;2.65;;;28.40;91.60;;;;;;5098234;28;20047;-76
2023/09/06 12:47:36;;;;;;;3.40;2.28;;;26.80;90.80;;;;;;5098511;28;20050;-77
2023/09/06 12:50:06;;;;;;;6.05;2.53;;;28.50;86.30;;;;;;5098542;28;20047;-77
2023/09/06 12:52:35;;;;;;;5.68;2.67;;;28.90;84.80;;;;;;5081455;28;20075;-78